sensor_id;sensor_type;location;lat;lon;timestamp;pressure;altitude;pressure_sealevel;temperature;humidity
21236;BME280;10775;42.678;26.324;2023-01-24T00:01:11;100067.41;;;6.29;100.00
21236;BME280;10775;42.678;26.324;2023-01-24T00:03:37;100063.78;;;6.21;100.00
21236;BME280;10775;42.678;26.324;2023-01-24T00:06:24;100066.16;;;6.08;100.00
21236;BME280;10775;42.678;26.324;2023-01-24T00:08:50;100069.41;;;6.00;100.00
21236;BME280;10775;42.678;26.324;2023-01-24T00:11:15;100073.94;;;6.08;100.00
21236;BME280;10775;42.678;26.324;2023-01-24T00:13:41;100076.41;;;6.02;100.00
21236;BME280;10775;42.678;26.324;2023-01-24T00:16:18;100086.53;;;5.92;100.00
21236;BME280;10775;42.678;26.324;2023-01-24T00:18:45;100075.78;;;6.16;100.00
21236;BME280;10775;42.678;26.324;2023-01-24T00:23:39;100080.63;;;5.97;100.00
21236;BME280;10775;42.678;26.324;2023-01-24T00:26:05;100089.72;;;5.78;100.00
21236;BME280;10775;42.678;26.324;2023-01-24T00:28:32;100079.50;;;5.86;100.00
21236;BME280;10775;42.678;26.324;2023-01-24T00:30:58;100084.72;;;5.48;100.00
21236;BME280;10775;42.678;26.324;2023-01-24T00:33:24;100077.69;;;5.44;100.00
21236;BME280;10775;42.678;26.324;2023-01-24T00:35:50;100090.47;;;5.74;100.00
21236;BME280;10775;42.678;26.324;2023-01-24T00:38:17;100077.56;;;5.77;100.00
21236;BME280;10775;42.678;26.324;2023-01-24T00:40:43;100082.56;;;5.68;100.00
21236;BME280;10775;42.678;26.324;2023-01-24T00:43:09;100073.53;;;5.51;100.00
21236;BME280;10775;42.678;26.324;2023-01-24T00:45:36;100080.91;;;5.34;100.00
21236;BME280;10775;42.678;26.324;2023-01-24T00:48:03;100070.81;;;5.46;100.00
21236;BME280;10775;42.678;26.324;2023-01-24T00:50:29;100077.91;;;5.53;100.00
21236;BME280;10775;42.678;26.324;2023-01-24T00:52:54;100072.94;;;5.26;100.00
21236;BME280;10775;42.678;26.324;2023-01-24T00:55:20;100073.81;;;5.64;100.00
21236;BME280;10775;42.678;26.324;2023-01-24T00:57:45;100078.19;;;5.67;100.00
21236;BME280;10775;42.678;26.324;2023-01-24T01:00:11;100081.47;;;5.58;100.00
21236;BME280;10775;42.678;26.324;2023-01-24T01:02:38;100083.03;;;5.50;100.00
21236;BME280;10775;42.678;26.324;2023-01-24T01:05:04;100073.69;;;5.58;100.00
21236;BME280;10775;42.678;26.324;2023-01-24T01:07:30;100081.25;;;5.49;100.00
21236;BME280;10775;42.678;26.324;2023-01-24T01:09:56;100087.31;;;5.48;100.00
21236;BME280;10775;42.678;26.324;2023-01-24T01:12:21;100091.88;;;5.58;100.00
21236;BME280;10775;42.678;26.324;2023-01-24T01:14:47;100088.75;;;5.73;100.00
21236;BME280;10775;42.678;26.324;2023-01-24T01:17:13;100085.97;;;5.65;100.00
21236;BME280;10775;42.678;26.324;2023-01-24T01:19:38;100086.78;;;5.64;100.00
21236;BME280;10775;42.678;26.324;2023-01-24T01:22:04;100089.31;;;5.60;100.00
21236;BME280;10775;42.678;26.324;2023-01-24T01:24:29;100096.34;;;5.65;100.00
21236;BME280;10775;42.678;26.324;2023-01-24T01:26:55;100095.41;;;5.24;100.00
21236;BME280;10775;42.678;26.324;2023-01-24T01:29:21;100091.59;;;5.46;100.00
21236;BME280;10775;42.678;26.324;2023-01-24T01:31:46;100094.97;;;5.42;100.00
21236;BME280;10775;42.678;26.324;2023-01-24T01:34:12;100103.44;;;5.35;100.00
21236;BME280;10775;42.678;26.324;2023-01-24T01:36:38;100101.16;;;5.12;100.00
21236;BME280;10775;42.678;26.324;2023-01-24T01:39:03;100095.31;;;5.21;100.00
21236;BME280;10775;42.678;26.324;2023-01-24T01:41:29;100103.97;;;5.21;100.00
21236;BME280;10775;42.678;26.324;2023-01-24T01:43:55;100100.06;;;5.39;100.00
21236;BME280;10775;42.678;26.324;2023-01-24T01:46:48;100097.63;;;5.45;100.00
21236;BME280;10775;42.678;26.324;2023-01-24T01:49:22;100099.97;;;5.36;100.00
21236;BME280;10775;42.678;26.324;2023-01-24T01:51:53;100098.38;;;5.41;100.00
21236;BME280;10775;42.678;26.324;2023-01-24T01:54:31;100101.75;;;5.37;100.00
21236;BME280;10775;42.678;26.324;2023-01-24T01:57:03;100100.91;;;5.38;100.00
21236;BME280;10775;42.678;26.324;2023-01-24T01:59:59;100100.91;;;5.38;100.00
21236;BME280;10775;42.678;26.324;2023-01-24T02:02:23;100100.78;;;5.32;100.00
21236;BME280;10775;42.678;26.324;2023-01-24T02:04:55;100095.41;;;5.26;100.00
21236;BME280;10775;42.678;26.324;2023-01-24T02:07:27;100099.97;;;5.36;100.00
21236;BME280;10775;42.678;26.324;2023-01-24T02:09:55;100089.72;;;5.40;100.00
21236;BME280;10775;42.678;26.324;2023-01-24T02:12:42;100090.59;;;5.39;100.00
21236;BME280;10775;42.678;26.324;2023-01-24T02:15:18;100087.31;;;5.48;100.00
21236;BME280;10775;42.678;26.324;2023-01-24T02:18:04;100092.19;;;5.34;100.00
21236;BME280;10775;42.678;26.324;2023-01-24T02:20:47;100085.03;;;5.24;100.00
21236;BME280;10775;42.678;26.324;2023-01-24T02:23:32;100078.00;;;5.20;100.00
21236;BME280;10775;42.678;26.324;2023-01-24T02:26:10;100085.63;;;5.14;100.00
21236;BME280;10775;42.678;26.324;2023-01-24T02:28:37;100080.41;;;4.77;100.00
21236;BME280;10775;42.678;26.324;2023-01-24T02:31:04;100089.41;;;4.92;100.00
21236;BME280;10775;42.678;26.324;2023-01-24T02:33:31;100087.97;;;5.03;100.00
21236;BME280;10775;42.678;26.324;2023-01-24T02:38:40;100100.59;;;5.24;100.00
21236;BME280;10775;42.678;26.324;2023-01-24T02:41:08;100097.25;;;5.30;100.00
21236;BME280;10775;42.678;26.324;2023-01-24T02:43:38;100090.22;;;5.24;100.00
21236;BME280;10775;42.678;26.324;2023-01-24T02:46:04;100090.72;;;5.09;100.00
21236;BME280;10775;42.678;26.324;2023-01-24T02:48:30;100087.56;;;5.22;100.00
21236;BME280;10775;42.678;26.324;2023-01-24T02:50:55;100089.97;;;5.15;100.00
21236;BME280;10775;42.678;26.324;2023-01-24T02:53:39;100090.00;;;5.16;100.00
21236;BME280;10775;42.678;26.324;2023-01-24T02:56:07;100092.75;;;5.22;100.00
21236;BME280;10775;42.678;26.324;2023-01-24T02:58:52;100095.72;;;5.03;100.00
21236;BME280;10775;42.678;26.324;2023-01-24T03:01:20;100095.97;;;5.12;100.00
21236;BME280;10775;42.678;26.324;2023-01-24T03:03:46;100101.47;;;5.25;100.00
21236;BME280;10775;42.678;26.324;2023-01-24T03:06:13;100098.25;;;5.35;100.00
21236;BME280;10775;42.678;26.324;2023-01-24T03:08:40;100096.56;;;5.37;100.00
21236;BME280;10775;42.678;26.324;2023-01-24T03:11:07;100100.59;;;5.26;100.00
21236;BME280;10775;42.678;26.324;2023-01-24T03:13:33;100098.09;;;5.29;100.00
21236;BME280;10775;42.678;26.324;2023-01-24T03:16:18;100099.91;;;5.33;100.00
21236;BME280;10775;42.678;26.324;2023-01-24T03:19:03;100092.06;;;5.30;100.00
21236;BME280;10775;42.678;26.324;2023-01-24T03:21:47;100098.88;;;5.26;100.00
21236;BME280;10775;42.678;26.324;2023-01-24T03:24:31;100100.03;;;5.37;100.00
21236;BME280;10775;42.678;26.324;2023-01-24T03:27:15;100107.00;;;5.40;100.00
21236;BME280;10775;42.678;26.324;2023-01-24T03:29:59;100105.78;;;5.24;100.00
21236;BME280;10775;42.678;26.324;2023-01-24T03:32:44;100105.28;;;5.04;100.00
21236;BME280;10775;42.678;26.324;2023-01-24T03:35:29;100113.69;;;4.95;100.00
21236;BME280;10775;42.678;26.324;2023-01-24T03:37:55;100109.84;;;5.14;100.00
21236;BME280;10775;42.678;26.324;2023-01-24T03:40:39;100111.78;;;5.23;100.00
21236;BME280;10775;42.678;26.324;2023-01-24T03:43:05;100109.13;;;5.20;100.00
21236;BME280;10775;42.678;26.324;2023-01-24T03:45:36;100110.97;;;5.24;100.00
21236;BME280;10775;42.678;26.324;2023-01-24T03:48:04;100108.31;;;5.22;100.00
21236;BME280;10775;42.678;26.324;2023-01-24T03:50:38;100105.56;;;5.16;100.00
21236;BME280;10775;42.678;26.324;2023-01-24T03:53:25;100099.09;;;4.99;100.00
21236;BME280;10775;42.678;26.324;2023-01-24T03:55:57;100098.44;;;5.08;100.00
21236;BME280;10775;42.678;26.324;2023-01-24T03:58:24;100107.94;;;5.07;100.00
21236;BME280;10775;42.678;26.324;2023-01-24T04:00:51;100107.69;;;4.98;100.00
21236;BME280;10775;42.678;26.324;2023-01-24T04:03:17;100103.38;;;4.98;100.00
21236;BME280;10775;42.678;26.324;2023-01-24T04:05:43;100106.69;;;4.91;100.00
21236;BME280;10775;42.678;26.324;2023-01-24T04:08:08;100116.16;;;4.91;100.00
21236;BME280;10775;42.678;26.324;2023-01-24T04:10:34;100111.16;;;4.98;100.00
21236;BME280;10775;42.678;26.324;2023-01-24T04:13:00;100105.72;;;4.88;100.00
21236;BME280;10775;42.678;26.324;2023-01-24T04:15:28;100113.66;;;4.94;100.00
21236;BME280;10775;42.678;26.324;2023-01-24T04:17:55;100107.59;;;4.93;100.00
21236;BME280;10775;42.678;26.324;2023-01-24T04:20:25;100114.69;;;5.00;100.00
21236;BME280;10775;42.678;26.324;2023-01-24T04:22:51;100104.78;;;4.84;100.00
21236;BME280;10775;42.678;26.324;2023-01-24T04:25:17;100105.78;;;4.89;100.00
21236;BME280;10775;42.678;26.324;2023-01-24T04:27:43;100101.50;;;4.91;100.00
21236;BME280;10775;42.678;26.324;2023-01-24T04:30:11;100102.91;;;4.78;100.00
21236;BME280;10775;42.678;26.324;2023-01-24T04:32:37;100104.06;;;4.90;100.00
21236;BME280;10775;42.678;26.324;2023-01-24T04:35:03;100111.16;;;4.97;100.00
21236;BME280;10775;42.678;26.324;2023-01-24T04:37:30;100107.81;;;5.03;100.00
21236;BME280;10775;42.678;26.324;2023-01-24T04:39:56;100109.63;;;5.05;100.00
21236;BME280;10775;42.678;26.324;2023-01-24T04:42:21;100106.09;;;5.03;100.00
21236;BME280;10775;42.678;26.324;2023-01-24T04:44:47;100114.88;;;5.08;100.00
21236;BME280;10775;42.678;26.324;2023-01-24T04:47:13;100116.66;;;5.11;100.00
21236;BME280;10775;42.678;26.324;2023-01-24T04:49:39;100119.06;;;5.03;100.00
21236;BME280;10775;42.678;26.324;2023-01-24T04:52:10;100117.34;;;4.70;100.00
21236;BME280;10775;42.678;26.324;2023-01-24T04:54:35;100118.44;;;4.47;100.00
21236;BME280;10775;42.678;26.324;2023-01-24T04:57:01;100120.78;;;4.69;100.00
21236;BME280;10775;42.678;26.324;2023-01-24T04:59:27;100124.84;;;4.91;100.00
21236;BME280;10775;42.678;26.324;2023-01-24T05:01:52;100115.56;;;5.01;100.00
21236;BME280;10775;42.678;26.324;2023-01-24T05:04:18;100128.31;;;4.93;100.00
21236;BME280;10775;42.678;26.324;2023-01-24T05:06:43;100125.09;;;5.02;100.00
21236;BME280;10775;42.678;26.324;2023-01-24T05:09:09;100125.72;;;4.93;100.00
21236;BME280;10775;42.678;26.324;2023-01-24T05:11:36;100133.31;;;4.86;100.00
21236;BME280;10775;42.678;26.324;2023-01-24T05:14:02;100129.41;;;5.01;100.00
21236;BME280;10775;42.678;26.324;2023-01-24T05:16:28;100130.47;;;5.10;100.00
21236;BME280;10775;42.678;26.324;2023-01-24T05:18:53;100127.09;;;5.12;100.00
21236;BME280;10775;42.678;26.324;2023-01-24T05:21:19;100126.91;;;5.06;100.00
21236;BME280;10775;42.678;26.324;2023-01-24T05:23:52;100129.03;;;4.88;100.00
21236;BME280;10775;42.678;26.324;2023-01-24T05:26:19;100129.09;;;4.89;100.00
21236;BME280;10775;42.678;26.324;2023-01-24T05:28:47;100129.31;;;4.65;100.00
21236;BME280;10775;42.678;26.324;2023-01-24T05:31:13;100129.22;;;4.00;100.00
21236;BME280;10775;42.678;26.324;2023-01-24T05:33:39;100129.50;;;4.09;100.00
21236;BME280;10775;42.678;26.324;2023-01-24T05:36:08;100133.13;;;4.46;100.00
21236;BME280;10775;42.678;26.324;2023-01-24T05:38:34;100134.88;;;4.47;100.00
21236;BME280;10775;42.678;26.324;2023-01-24T05:41:02;100133.22;;;4.83;100.00
21236;BME280;10775;42.678;26.324;2023-01-24T05:43:28;100139.38;;;4.86;100.00
21236;BME280;10775;42.678;26.324;2023-01-24T05:46:11;100136.22;;;4.98;100.00
21236;BME280;10775;42.678;26.324;2023-01-24T05:48:38;100142.97;;;4.91;100.00
21236;BME280;10775;42.678;26.324;2023-01-24T05:51:06;100145.97;;;4.73;100.00
21236;BME280;10775;42.678;26.324;2023-01-24T05:53:35;100136.28;;;4.68;100.00
21236;BME280;10775;42.678;26.324;2023-01-24T05:56:04;100129.91;;;4.87;100.00
21236;BME280;10775;42.678;26.324;2023-01-24T05:58:34;100138.00;;;4.99;100.00
21236;BME280;10775;42.678;26.324;2023-01-24T06:01:00;100145.25;;;5.12;100.00
21236;BME280;10775;42.678;26.324;2023-01-24T06:03:26;100146.06;;;5.11;100.00
21236;BME280;10775;42.678;26.324;2023-01-24T06:05:54;100145.16;;;5.09;100.00
21236;BME280;10775;42.678;26.324;2023-01-24T06:08:21;100153.94;;;5.14;100.00
21236;BME280;10775;42.678;26.324;2023-01-24T06:10:47;100151.78;;;4.98;100.00
21236;BME280;10775;42.678;26.324;2023-01-24T06:13:14;100155.28;;;5.00;100.00
21236;BME280;10775;42.678;26.324;2023-01-24T06:15:40;100152.16;;;5.12;100.00
21236;BME280;10775;42.678;26.324;2023-01-24T06:18:06;100157.16;;;5.06;100.00
21236;BME280;10775;42.678;26.324;2023-01-24T06:20:33;100161.53;;;5.08;100.00
21236;BME280;10775;42.678;26.324;2023-01-24T06:23:03;100160.78;;;5.12;100.00
21236;BME280;10775;42.678;26.324;2023-01-24T06:25:29;100164.16;;;5.43;100.00
21236;BME280;10775;42.678;26.324;2023-01-24T06:27:55;100163.59;;;5.56;100.00
21236;BME280;10775;42.678;26.324;2023-01-24T06:30:21;100164.81;;;5.72;100.00
21236;BME280;10775;42.678;26.324;2023-01-24T06:33:01;100161.72;;;5.87;100.00
21236;BME280;10775;42.678;26.324;2023-01-24T06:38:02;100160.94;;;6.29;100.00
21236;BME280;10775;42.678;26.324;2023-01-24T06:40:29;100161.09;;;6.38;100.00
21236;BME280;10775;42.678;26.324;2023-01-24T06:42:56;100156.94;;;6.46;100.00
21236;BME280;10775;42.678;26.324;2023-01-24T06:45:22;100163.81;;;6.43;100.00
21236;BME280;10775;42.678;26.324;2023-01-24T06:47:49;100164.69;;;6.43;100.00
21236;BME280;10775;42.678;26.324;2023-01-24T06:50:22;100174.75;;;6.72;100.00
21236;BME280;10775;42.678;26.324;2023-01-24T06:52:49;100182.50;;;6.69;100.00
21236;BME280;10775;42.678;26.324;2023-01-24T06:55:16;100177.34;;;6.72;100.00
21236;BME280;10775;42.678;26.324;2023-01-24T06:57:42;100182.94;;;6.90;100.00
21236;BME280;10775;42.678;26.324;2023-01-24T07:00:09;100189.91;;;6.93;100.00
21236;BME280;10775;42.678;26.324;2023-01-24T07:02:35;100184.81;;;6.99;100.00
21236;BME280;10775;42.678;26.324;2023-01-24T07:05:01;100186.78;;;7.11;100.00
21236;BME280;10775;42.678;26.324;2023-01-24T07:07:26;100195.53;;;7.16;100.00
21236;BME280;10775;42.678;26.324;2023-01-24T07:09:52;100191.97;;;7.11;100.00
21236;BME280;10775;42.678;26.324;2023-01-24T07:12:18;100190.28;;;7.14;100.00
21236;BME280;10775;42.678;26.324;2023-01-24T07:14:44;100185.81;;;7.07;100.00
21236;BME280;10775;42.678;26.324;2023-01-24T07:17:10;100195.53;;;7.16;100.00
21236;BME280;10775;42.678;26.324;2023-01-24T07:19:36;100192.25;;;7.26;100.00
21236;BME280;10775;42.678;26.324;2023-01-24T07:22:01;100186.09;;;7.23;100.00
21236;BME280;10775;42.678;26.324;2023-01-24T07:24:29;100189.56;;;7.23;100.00
21236;BME280;10775;42.678;26.324;2023-01-24T07:26:56;100187.88;;;7.24;100.00
21236;BME280;10775;42.678;26.324;2023-01-24T07:29:22;100199.97;;;7.22;100.00
21236;BME280;10775;42.678;26.324;2023-01-24T07:31:48;100194.06;;;7.33;100.00
21236;BME280;10775;42.678;26.324;2023-01-24T07:34:16;100190.78;;;7.44;100.00
21236;BME280;10775;42.678;26.324;2023-01-24T07:36:43;100200.25;;;7.38;100.00
21236;BME280;10775;42.678;26.324;2023-01-24T07:39:09;100196.00;;;7.44;100.00
21236;BME280;10775;42.678;26.324;2023-01-24T07:41:39;100209.94;;;7.47;100.00
21236;BME280;10775;42.678;26.324;2023-01-24T07:44:08;100208.97;;;7.40;100.00
21236;BME280;10775;42.678;26.324;2023-01-24T07:46:35;100207.78;;;7.23;100.00
21236;BME280;10775;42.678;26.324;2023-01-24T07:49:01;100208.88;;;7.36;100.00
21236;BME280;10775;42.678;26.324;2023-01-24T07:51:27;100207.72;;;7.20;100.00
21236;BME280;10775;42.678;26.324;2023-01-24T07:53:53;100207.84;;;7.26;100.00
21236;BME280;10775;42.678;26.324;2023-01-24T07:56:19;100210.72;;;7.43;100.00
21236;BME280;10775;42.678;26.324;2023-01-24T07:58:45;100205.56;;;7.46;100.00
21236;BME280;10775;42.678;26.324;2023-01-24T08:01:19;100203.88;;;7.47;100.00
21236;BME280;10775;42.678;26.324;2023-01-24T08:03:45;100211.47;;;7.34;100.00
21236;BME280;10775;42.678;26.324;2023-01-24T08:06:11;100206.47;;;7.47;100.00
21236;BME280;10775;42.678;26.324;2023-01-24T08:08:37;100206.59;;;7.56;100.00
21236;BME280;10775;42.678;26.324;2023-01-24T08:11:02;100203.06;;;7.49;100.00
21236;BME280;10775;42.678;26.324;2023-01-24T08:13:28;100200.00;;;7.25;100.00
21236;BME280;10775;42.678;26.324;2023-01-24T08:15:54;100196.72;;;7.35;100.00
21236;BME280;10775;42.678;26.324;2023-01-24T08:18:19;100210.03;;;7.52;100.00
21236;BME280;10775;42.678;26.324;2023-01-24T08:20:45;100208.41;;;7.60;100.00
21236;BME280;10775;42.678;26.324;2023-01-24T08:23:11;100207.63;;;7.14;100.00
21236;BME280;10775;42.678;26.324;2023-01-24T08:25:37;100207.13;;;7.35;100.00
21236;BME280;10775;42.678;26.324;2023-01-24T08:28:02;100211.25;;;7.22;100.00
21236;BME280;10775;42.678;26.324;2023-01-24T08:30:28;100209.97;;;7.49;100.00
21236;BME280;10775;42.678;26.324;2023-01-24T08:33:04;100205.78;;;7.57;100.00
21236;BME280;10775;42.678;26.324;2023-01-24T08:35:31;100203.19;;;7.57;100.00
21236;BME280;10775;42.678;26.324;2023-01-24T08:37:57;100199.75;;;7.59;100.00
21236;BME280;10775;42.678;26.324;2023-01-24T08:40:23;100211.00;;;7.10;100.00
21236;BME280;10775;42.678;26.324;2023-01-24T08:42:49;100200.38;;;6.96;100.00
21236;BME280;10775;42.678;26.324;2023-01-24T08:45:15;100205.81;;;7.08;100.00
21236;BME280;10775;42.678;26.324;2023-01-24T08:47:40;100207.59;;;6.67;100.00
21236;BME280;10775;42.678;26.324;2023-01-24T08:50:07;100200.59;;;6.63;100.00
21236;BME280;10775;42.678;26.324;2023-01-24T08:52:32;100199.84;;;7.14;100.00
21236;BME280;10775;42.678;26.324;2023-01-24T08:54:58;100206.03;;;7.22;100.00
21236;BME280;10775;42.678;26.324;2023-01-24T08:57:24;100208.81;;;6.84;100.00
21236;BME280;10775;42.678;26.324;2023-01-24T08:59:49;100205.66;;;7.01;100.00
21236;BME280;10775;42.678;26.324;2023-01-24T09:02:15;100201.66;;;7.19;100.00
21236;BME280;10775;42.678;26.324;2023-01-24T09:04:42;100201.31;;;7.50;100.00
21236;BME280;10775;42.678;26.324;2023-01-24T09:07:10;100207.47;;;7.55;100.00
21236;BME280;10775;42.678;26.324;2023-01-24T09:09:36;100202.13;;;7.47;100.00
21236;BME280;10775;42.678;26.324;2023-01-24T09:12:01;100197.59;;;7.34;100.00
21236;BME280;10775;42.678;26.324;2023-01-24T09:14:27;100197.50;;;7.29;100.00
21236;BME280;10775;42.678;26.324;2023-01-24T09:16:53;100194.84;;;7.28;100.00
21236;BME280;10775;42.678;26.324;2023-01-24T09:19:19;100194.94;;;7.32;100.00
21236;BME280;10775;42.678;26.324;2023-01-24T09:21:45;100193.88;;;7.74;100.00
21236;BME280;10775;42.678;26.324;2023-01-24T09:24:14;100194.06;;;7.87;100.00
21236;BME280;10775;42.678;26.324;2023-01-24T09:26:39;100191.50;;;7.90;100.00
21236;BME280;10775;42.678;26.324;2023-01-24T09:29:06;100184.78;;;8.04;100.00
21236;BME280;10775;42.678;26.324;2023-01-24T09:31:31;100192.56;;;8.01;100.00
21236;BME280;10775;42.678;26.324;2023-01-24T09:33:57;100186.41;;;7.96;100.00
21236;BME280;10775;42.678;26.324;2023-01-24T09:36:23;100189.84;;;7.95;100.00
21236;BME280;10775;42.678;26.324;2023-01-24T09:38:49;100184.72;;;7.99;100.00
21236;BME280;10775;42.678;26.324;2023-01-24T09:44:00;100180.75;;;7.67;100.00
21236;BME280;10775;42.678;26.324;2023-01-24T09:49:15;100181.31;;;7.49;100.00
21236;BME280;10775;42.678;26.324;2023-01-24T09:51:51;100188.13;;;7.40;100.00
21236;BME280;10775;42.678;26.324;2023-01-24T09:54:48;100179.78;;;7.08;100.00
21236;BME280;10775;42.678;26.324;2023-01-24T09:57:25;100181.34;;;6.99;100.00
21236;BME280;10775;42.678;26.324;2023-01-24T10:00:00;100178.34;;;7.24;100.00
21236;BME280;10775;42.678;26.324;2023-01-24T10:02:28;100183.78;;;7.39;100.00
21236;BME280;10775;42.678;26.324;2023-01-24T10:04:54;100182.66;;;6.75;100.00
21236;BME280;10775;42.678;26.324;2023-01-24T10:10:00;100181.63;;;7.14;100.00
21236;BME280;10775;42.678;26.324;2023-01-24T10:21:04;100168.69;;;7.18;100.00
21236;BME280;10775;42.678;26.324;2023-01-24T10:23:39;100167.31;;;7.40;100.00
21236;BME280;10775;42.678;26.324;2023-01-24T10:26:21;100164.75;;;7.42;100.00
21236;BME280;10775;42.678;26.324;2023-01-24T10:28:53;100160.38;;;7.39;100.00
21236;BME280;10775;42.678;26.324;2023-01-24T10:31:27;100154.00;;;7.22;100.00
21236;BME280;10775;42.678;26.324;2023-01-24T10:34:07;100153.16;;;7.23;100.00
21236;BME280;10775;42.678;26.324;2023-01-24T10:36:41;100152.16;;;7.15;100.00
21236;BME280;10775;42.678;26.324;2023-01-24T10:39:09;100145.66;;;6.91;100.00
21236;BME280;10775;42.678;26.324;2023-01-24T10:41:36;100145.16;;;7.11;100.00
21236;BME280;10775;42.678;26.324;2023-01-24T10:44:14;100139.22;;;7.19;100.00
21236;BME280;10775;42.678;26.324;2023-01-24T10:47:04;100139.50;;;6.86;100.00
21236;BME280;10775;42.678;26.324;2023-01-24T10:49:37;100136.00;;;6.84;100.00
21236;BME280;10775;42.678;26.324;2023-01-24T10:52:15;100137.88;;;6.91;100.00
21236;BME280;10775;42.678;26.324;2023-01-24T10:54:50;100134.38;;;6.89;100.00
21236;BME280;10775;42.678;26.324;2023-01-24T11:00:34;100125.78;;;6.93;100.00
21236;BME280;10775;42.678;26.324;2023-01-24T11:03:03;100125.03;;;7.01;100.00
21236;BME280;10775;42.678;26.324;2023-01-24T11:05:52;100126.78;;;7.02;100.00
21236;BME280;10775;42.678;26.324;2023-01-24T11:08:21;100118.06;;;6.98;100.00
21236;BME280;10775;42.678;26.324;2023-01-24T11:10:53;100128.78;;;6.68;100.00
21236;BME280;10775;42.678;26.324;2023-01-24T11:13:38;100125.03;;;6.53;100.00
21236;BME280;10775;42.678;26.324;2023-01-24T11:16:05;100124.34;;;6.64;100.00
21236;BME280;10775;42.678;26.324;2023-01-24T11:18:32;100111.81;;;6.88;100.00
21236;BME280;10775;42.678;26.324;2023-01-24T11:21:09;100110.31;;;7.03;100.00
21236;BME280;10775;42.678;26.324;2023-01-24T11:23:35;100112.03;;;7.01;100.00
21236;BME280;10775;42.678;26.324;2023-01-24T11:26:03;100108.34;;;6.89;100.00
21236;BME280;10775;42.678;26.324;2023-01-24T11:28:32;100092.97;;;7.02;100.00
21236;BME280;10775;42.678;26.324;2023-01-24T11:31:07;100095.28;;;7.36;100.00
21236;BME280;10775;42.678;26.324;2023-01-24T11:36:55;100080.16;;;7.72;100.00
21236;BME280;10775;42.678;26.324;2023-01-24T11:39:35;100076.59;;;7.65;100.00
21236;BME280;10775;42.678;26.324;2023-01-24T11:42:14;100072.94;;;7.52;100.00
21236;BME280;10775;42.678;26.324;2023-01-24T11:47:33;100065.66;;;7.92;100.00
21236;BME280;10775;42.678;26.324;2023-01-24T11:52:47;100070.53;;;7.66;100.00
21236;BME280;10775;42.678;26.324;2023-01-24T11:55:59;100064.38;;;7.61;100.00
21236;BME280;10775;42.678;26.324;2023-01-24T12:01:30;100059.50;;;7.82;100.00
21236;BME280;10775;42.678;26.324;2023-01-24T12:04:14;100054.47;;;7.98;100.00
21236;BME280;10775;42.678;26.324;2023-01-24T12:07:00;100051.06;;;8.05;100.00
21236;BME280;10775;42.678;26.324;2023-01-24T12:20:48;100053.59;;;7.99;100.00
21236;BME280;10775;42.678;26.324;2023-01-24T12:23:23;100045.00;;;8.06;100.00
21236;BME280;10775;42.678;26.324;2023-01-24T12:25:54;100049.47;;;8.18;100.00
21236;BME280;10775;42.678;26.324;2023-01-24T12:28:28;100048.97;;;7.15;100.00
21236;BME280;10775;42.678;26.324;2023-01-24T12:31:00;100052.41;;;6.61;100.00
21236;BME280;10775;42.678;26.324;2023-01-24T12:33:45;100043.56;;;7.59;100.00
21236;BME280;10775;42.678;26.324;2023-01-24T12:36:22;100039.22;;;7.60;100.00
21236;BME280;10775;42.678;26.324;2023-01-24T12:38:54;100045.06;;;7.44;100.00
21236;BME280;10775;42.678;26.324;2023-01-24T12:41:35;100050.03;;;7.28;100.00
21236;BME280;10775;42.678;26.324;2023-01-24T12:44:31;100049.13;;;7.89;100.00
21236;BME280;10775;42.678;26.324;2023-01-24T12:47:22;100049.44;;;8.13;100.00
21236;BME280;10775;42.678;26.324;2023-01-24T12:50:20;100050.38;;;8.18;100.00
21236;BME280;10775;42.678;26.324;2023-01-24T12:53:12;100054.59;;;8.10;100.00
21236;BME280;10775;42.678;26.324;2023-01-24T12:58:40;100057.56;;;7.69;100.00
21236;BME280;10775;42.678;26.324;2023-01-24T13:07:17;100061.28;;;7.90;100.00
21236;BME280;10775;42.678;26.324;2023-01-24T13:10:21;100069.06;;;7.24;100.00
21236;BME280;10775;42.678;26.324;2023-01-24T13:12:50;100077.06;;;6.36;100.00
21236;BME280;10775;42.678;26.324;2023-01-24T13:15:18;100084.56;;;4.39;100.00
21236;BME280;10775;42.678;26.324;2023-01-24T13:26:17;100090.56;;;3.76;100.00
21236;BME280;10775;42.678;26.324;2023-01-24T13:29:09;100094.81;;;3.45;100.00
21236;BME280;10775;42.678;26.324;2023-01-24T13:34:29;100086.25;;;5.79;100.00
21236;BME280;10775;42.678;26.324;2023-01-24T13:36:56;100086.13;;;4.64;100.00
21236;BME280;10775;42.678;26.324;2023-01-24T13:42:04;100094.75;;;3.73;100.00
21236;BME280;10775;42.678;26.324;2023-01-24T13:44:31;100098.03;;;3.67;100.00
21236;BME280;10775;42.678;26.324;2023-01-24T13:47:02;100102.28;;;3.65;100.00
21236;BME280;10775;42.678;26.324;2023-01-24T13:51:58;100099.47;;;5.51;100.00
21236;BME280;10775;42.678;26.324;2023-01-24T13:54:42;100099.81;;;6.48;100.00
21236;BME280;10775;42.678;26.324;2023-01-24T14:02:31;100108.00;;;5.83;100.00
21236;BME280;10775;42.678;26.324;2023-01-24T14:04:58;100119.25;;;4.44;100.00
21236;BME280;10775;42.678;26.324;2023-01-24T14:07:45;100110.25;;;4.31;100.00
21236;BME280;10775;42.678;26.324;2023-01-24T14:10:11;100112.88;;;3.73;100.00
21236;BME280;10775;42.678;26.324;2023-01-24T14:12:39;100112.22;;;3.51;100.00
21236;BME280;10775;42.678;26.324;2023-01-24T14:20:14;100112.56;;;3.35;100.00
21236;BME280;10775;42.678;26.324;2023-01-24T14:22:44;100110.13;;;3.12;100.00